Time;durP1;ratioP1;P1;durP2;ratioP2;P2;SDS_P1;SDS_P2;PMS_P1;PMS_P2;Temp;Humidity;BMP_temperature;BMP_pressure;BME280_temperature;BME280_humidity;BME280_pressure;Samples;Min_cycle;Max_cycle;Signal;HPM_P1;HPM_P2
2022/07/11 00:01:48;;;;;;;;;2.00;2.00;;;;;24.27;39.97;101547.78;4887578;29;48021;-89
2022/07/11 00:04:13;;;;;;;;;3.25;2.00;;;;;24.22;39.89;101544.78;4902923;29;45531;-92
2022/07/11 00:06:39;;;;;;;;;2.50;2.00;;;;;24.19;39.93;101539.75;4903831;29;45617;-90
2022/07/11 00:09:04;;;;;;;;;2.00;2.00;;;;;24.09;39.89;101531.09;4905787;29;45605;-91
2022/07/11 00:11:30;;;;;;;;;2.00;2.00;;;;;24.17;39.74;101541.78;4907727;29;45753;-91
2022/07/11 00:13:55;;;;;;;;;2.00;2.00;;;;;24.12;39.69;101538.78;4903710;29;45543;-89
2022/07/11 00:19:42;;;;;;;;;2.50;2.00;;;;;24.12;39.72;101538.78;4902679;29;45670;-91
2022/07/11 00:22:09;;;;;;;;;1.50;1.50;;;;;24.07;40.14;101538.47;4886081;29;46633;-84
2022/07/11 00:24:34;;;;;;;;;2.00;2.00;;;;;24.09;39.87;101539.13;4902708;29;45622;-91
2022/07/11 00:27:00;;;;;;;;;2.25;2.25;;;;;24.08;39.90;101538.28;4903148;29;45573;-87
2022/07/11 00:29:26;;;;;;;;;1.00;1.00;;;;;24.09;40.30;101542.63;4907469;29;45555;-89
2022/07/11 00:35:42;;;;;;;;;2.75;2.00;;;;;24.06;40.10;101534.13;4913276;29;45820;-91
2022/07/11 00:38:07;;;;;;;;;3.00;2.00;;;;;24.01;40.08;101534.66;4909377;29;45622;-88
2022/07/11 00:40:33;;;;;;;;;1.00;1.00;;;;;23.94;40.40;101530.97;4907044;29;45449;-91
2022/07/11 00:42:58;;;;;;;;;2.00;2.00;;;;;24.01;40.38;101540.00;4905497;29;45892;-89
2022/07/11 00:45:24;;;;;;;;;1.00;1.00;;;;;23.97;40.45;101529.81;4904724;29;46512;-90
2022/07/11 00:47:49;;;;;;;;;1.50;1.25;;;;;23.94;40.66;101525.63;4887333;29;45691;-91
2022/07/11 00:50:17;;;;;;;;;1.00;1.00;;;;;23.88;40.50;101512.94;4904126;29;45776;-89
2022/07/11 00:52:42;;;;;;;;;3.00;2.00;;;;;23.84;40.03;101515.13;4904549;29;45698;-85
2022/07/11 00:55:09;;;;;;;;;1.00;1.00;;;;;23.86;40.17;101508.78;4905484;29;46123;-85
2022/07/11 00:57:36;;;;;;;;;1.25;1.25;;;;;23.89;40.75;101517.28;4906011;29;45681;-92
2022/07/11 01:00:02;;;;;;;;;1.00;1.00;;;;;23.86;41.05;101520.28;4907995;29;45782;-88
2022/07/11 01:02:28;;;;;;;;;1.00;1.00;;;;;23.76;40.43;101506.28;4889842;29;45669;-91
2022/07/11 01:04:53;;;;;;;;;2.75;2.75;;;;;23.78;40.26;101521.19;4906076;29;45666;-89
2022/07/11 01:07:20;;;;;;;;;1.00;1.00;;;;;23.70;40.89;101506.97;4906124;29;45634;-88
2022/07/11 01:09:45;;;;;;;;;2.00;2.00;;;;;23.69;40.56;101511.50;4889721;29;45570;-89
2022/07/11 01:12:11;;;;;;;;;2.00;2.00;;;;;23.61;40.92;101497.31;4898748;29;45533;-89
2022/07/11 01:14:36;;;;;;;;;1.00;1.00;;;;;23.57;41.00;101504.00;4916158;29;46256;-89
2022/07/11 01:20:24;;;;;;;;;0.75;0.75;;;;;23.49;41.07;101504.84;4908837;29;45651;-88
2022/07/11 01:22:53;;;;;;;;;1.75;1.00;;;;;23.51;41.40;101520.75;4907112;29;45604;-89
2022/07/11 01:25:32;;;;;;;;;1.50;1.50;;;;;23.47;41.48;101506.06;4894140;29;45867;-88
2022/07/11 01:28:03;;;;;;;;;1.75;1.75;;;;;23.42;41.63;101502.03;4897586;29;45291;-88
2022/07/11 01:30:30;;;;;;;;;2.00;2.00;;;;;23.46;41.60;101505.22;4911129;29;45507;-90
2022/07/11 01:32:55;;;;;;;;;2.00;2.00;;;;;23.37;41.95;101493.66;4916214;29;45687;-89
2022/07/11 01:35:21;;;;;;;;;1.75;1.75;;;;;23.37;41.25;101499.00;4915162;29;45675;-92
2022/07/11 01:37:47;;;;;;;;;0.25;0.25;;;;;23.41;41.96;101510.22;4911195;29;45699;-90
2022/07/11 01:40:14;;;;;;;;;2.00;2.00;;;;;23.43;41.43;101521.56;4908402;29;45565;-89
2022/07/11 01:42:40;;;;;;;;;1.50;1.50;;;;;23.39;41.74;101514.88;4910755;29;46633;-88
2022/07/11 01:45:06;;;;;;;;;1.50;1.00;;;;;23.40;41.73;101512.03;4911682;29;46434;-91
2022/07/11 01:50:53;;;;;;;;;1.50;1.50;;;;;23.35;41.97;101516.25;4914209;29;45599;-92
2022/07/11 01:53:19;;;;;;;;;1.00;1.00;;;;;23.36;41.31;101513.41;4914993;29;46710;-85
2022/07/11 01:55:44;;;;;;;;;1.50;1.50;;;;;23.35;42.06;101503.69;4913325;29;45564;-81
2022/07/11 01:58:10;;;;;;;;;1.75;1.75;;;;;23.32;41.39;101500.53;4910575;29;45603;-79
2022/07/11 02:00:35;;;;;;;;;1.75;1.75;;;;;23.32;42.15;101504.03;4909806;29;45734;-86
2022/07/11 02:06:23;;;;;;;;;3.00;1.00;;;;;23.34;42.14;101517.22;4906868;29;45764;-80
2022/07/11 02:08:48;;;;;;;;;2.75;1.25;;;;;23.31;42.22;101510.41;4910111;29;45602;-88
2022/07/11 02:11:14;;;;;;;;;1.00;1.00;;;;;23.31;41.57;101515.75;4905611;29;45608;-89
2022/07/11 02:13:39;;;;;;;;;1.25;1.00;;;;;23.28;41.65;101508.06;4911101;29;45564;-91
2022/07/11 02:16:05;;;;;;;;;2.00;1.75;;;;;23.27;42.40;101509.06;4909378;29;45660;-92
2022/07/11 02:18:34;;;;;;;;;2.00;1.25;;;;;23.23;42.41;101507.72;4906912;29;45528;-89
2022/07/11 02:21:00;;;;;;;;;2.00;2.00;;;;;23.25;42.16;101505.72;4909657;29;45437;-89
2022/07/11 02:23:25;;;;;;;;;1.00;1.00;;;;;23.17;41.69;101499.53;4909412;29;46452;-91
2022/07/11 02:25:51;;;;;;;;;2.00;2.00;;;;;23.18;42.19;101499.38;4909668;29;45629;-91
2022/07/11 02:28:17;;;;;;;;;1.50;1.50;;;;;23.20;42.02;101502.72;4909011;29;45712;-92
2022/07/11 02:30:43;;;;;;;;;2.50;2.50;;;;;23.22;42.37;101500.69;4909374;29;45751;-88
2022/07/11 02:36:31;;;;;;;;;2.00;2.00;;;;;23.22;42.24;101507.88;4907079;29;45768;-90
2022/07/11 02:38:56;;;;;;;;;1.75;1.00;;;;;23.22;42.30;101506.06;4891609;29;45621;-90
2022/07/11 02:41:22;;;;;;;;;2.00;1.00;;;;;23.18;41.74;101507.41;4908150;29;45724;-89
2022/07/11 02:43:47;;;;;;;;;2.25;2.00;;;;;23.19;42.14;101506.41;4891302;29;47757;-91
2022/07/11 02:46:14;;;;;;;;;2.00;2.00;;;;;23.10;42.28;101507.41;4908348;29;46269;-90
2022/07/11 02:48:39;;;;;;;;;1.00;1.00;;;;;23.14;41.82;101500.72;4891205;29;45715;-90
2022/07/11 02:51:05;;;;;;;;;2.50;2.00;;;;;23.11;41.76;101509.06;4908108;29;45622;-90
2022/07/11 02:53:30;;;;;;;;;2.00;2.00;;;;;23.04;42.05;101500.06;4891653;29;47753;-90
2022/07/11 02:55:55;;;;;;;;;2.00;2.00;;;;;23.07;42.16;101505.06;4908897;29;45607;-88
2022/07/11 02:58:21;;;;;;;;;1.00;1.00;;;;;23.09;42.27;101516.44;4890873;29;45639;-89
2022/07/11 03:00:46;;;;;;;;;2.00;2.00;;;;;23.07;42.54;101512.25;4909262;29;45531;-88
2022/07/11 03:06:33;;;;;;;;;1.75;1.75;;;;;22.98;42.92;101503.41;4908568;29;45751;-89
2022/07/11 03:08:59;;;;;;;;;1.25;1.00;;;;;22.97;42.25;101507.09;4908542;29;45687;-91
2022/07/11 03:11:24;;;;;;;;;2.00;2.00;;;;;22.89;42.69;101493.69;4907353;29;45788;-89
2022/07/11 03:13:51;;;;;;;;;1.75;1.25;;;;;22.85;42.62;101489.69;4906371;29;47563;-88
2022/07/11 03:16:17;;;;;;;;;1.00;1.00;;;;;22.80;42.43;101484.88;4908871;29;45881;-89
2022/07/11 03:22:04;;;;;;;;;2.50;2.50;;;;;22.84;43.29;101490.69;4909866;29;45532;-85
2022/07/11 03:24:30;;;;;;;;;1.50;1.50;;;;;22.75;43.25;101483.69;4911109;29;45982;-86
2022/07/11 03:26:56;;;;;;;;;2.25;2.00;;;;;22.76;42.92;101485.38;4910422;29;46383;-85
2022/07/11 03:29:21;;;;;;;;;2.00;2.00;;;;;22.77;42.68;101500.41;4907886;29;45522;-87
2022/07/11 03:31:47;;;;;;;;;2.75;2.00;;;;;22.68;43.29;101488.81;4906367;29;45529;-86
2022/07/11 03:34:12;;;;;;;;;3.25;3.00;;;;;22.71;43.31;101493.03;4905318;29;47313;-89
2022/07/11 03:36:38;;;;;;;;;2.00;2.00;;;;;22.74;43.44;101498.03;4906791;29;45579;-91
2022/07/11 03:39:03;;;;;;;;;2.00;2.00;;;;;22.74;43.62;101503.41;4906947;29;45678;-88
2022/07/11 03:41:28;;;;;;;;;1.00;1.00;;;;;22.65;43.24;101483.00;4888750;29;45406;-88
2022/07/11 03:43:56;;;;;;;;;3.00;1.50;;;;;22.65;43.21;101488.34;4907094;29;45391;-89
2022/07/11 03:46:22;;;;;;;;;3.00;2.00;;;;;22.72;43.27;101505.41;4907480;29;45973;-89
2022/07/11 03:52:09;;;;;;;;;3.00;2.00;;;;;22.70;43.65;101494.00;4908876;29;45496;-88
2022/07/11 03:54:35;;;;;;;;;2.50;2.50;;;;;22.71;43.67;101501.91;4909141;29;46877;-83
2022/07/11 03:57:00;;;;;;;;;3.00;3.00;;;;;22.63;43.50;101493.84;4895959;29;47769;-83
2022/07/11 03:59:26;;;;;;;;;2.00;2.00;;;;;22.68;43.90;101501.34;4919242;29;45472;-90
2022/07/11 04:01:51;;;;;;;;;3.00;2.75;;;;;22.56;43.91;101490.97;4917046;29;45571;-78
2022/07/11 04:08:07;;;;;;;;;3.25;3.00;;;;;22.65;43.61;101505.19;4905005;29;46051;-90
2022/07/11 04:10:33;;;;;;;;;3.00;3.00;;;;;22.63;43.89;101498.34;4890082;29;45557;-89
2022/07/11 04:12:59;;;;;;;;;2.00;2.00;;;;;22.60;43.79;101489.66;4909679;29;45437;-90
2022/07/11 04:15:24;;;;;;;;;2.00;2.00;;;;;22.52;44.11;101486.97;4905349;29;45500;-89
2022/07/11 04:17:49;;;;;;;;;3.00;2.50;;;;;22.60;44.06;101502.19;4905511;29;45567;-89
2022/07/11 04:20:15;;;;;;;;;4.00;3.00;;;;;22.50;43.83;101489.00;4906016;29;45510;-88
2022/07/11 04:22:40;;;;;;;;;3.50;3.50;;;;;22.56;44.13;101496.31;4886731;29;45490;-92
2022/07/11 04:25:06;;;;;;;;;3.00;3.00;;;;;22.56;44.30;101487.50;4908282;29;46526;-90
2022/07/11 04:27:31;;;;;;;;;3.00;2.00;;;;;22.58;43.75;101496.16;4886634;29;47204;-89
2022/07/11 04:29:57;;;;;;;;;3.00;3.00;;;;;22.55;44.09;101497.34;4910755;29;45698;-90
2022/07/11 04:32:22;;;;;;;;;3.00;3.00;;;;;22.55;44.50;101513.38;4898588;29;45737;-89
2022/07/11 04:38:15;;;;;;;;;5.00;3.75;;;;;22.53;44.49;101519.88;4909825;29;45729;-86
2022/07/11 04:40:40;;;;;;;;;5.50;3.00;;;;;22.48;44.61;101511.50;4908219;29;45390;-85
2022/07/11 04:43:05;;;;;;;;;3.75;3.00;;;;;22.48;44.70;101516.84;4904084;29;45584;-90
2022/07/11 04:45:31;;;;;;;;;3.00;3.00;;;;;22.49;44.79;101524.72;4904640;29;46480;-90
2022/07/11 04:48:02;;;;;;;;;3.50;3.00;;;;;22.53;44.52;101526.06;4905085;29;45628;-88
2022/07/11 04:50:28;;;;;;;;;2.75;2.75;;;;;22.53;44.48;101528.72;4905884;29;45703;-88
2022/07/11 04:52:54;;;;;;;;;3.00;3.00;;;;;22.53;44.27;101531.41;4905840;29;45723;-87
2022/07/11 04:55:19;;;;;;;;;3.50;3.25;;;;;22.52;44.32;101523.53;4889508;29;46482;-91
2022/07/11 04:57:44;;;;;;;;;2.00;1.00;;;;;22.50;44.36;101518.38;4905166;29;48539;-92
2022/07/11 05:00:10;;;;;;;;;2.75;2.75;;;;;22.57;44.34;101534.56;4906720;29;45710;-91
2022/07/11 05:02:36;;;;;;;;;4.00;3.00;;;;;22.56;44.18;101527.56;4905420;29;45465;-86
2022/07/11 05:08:24;;;;;;;;;4.00;3.25;;;;;22.61;44.30;101530.59;4904150;29;46055;-88
2022/07/11 05:10:49;;;;;;;;;3.00;3.00;;;;;22.58;44.94;101517.53;4901295;29;45551;-91
2022/07/11 05:13:15;;;;;;;;;3.00;3.00;;;;;22.66;44.79;101535.44;4901585;29;45580;-90
2022/07/11 05:15:41;;;;;;;;;4.00;3.00;;;;;22.59;44.41;101520.06;4901409;29;46969;-86
2022/07/11 05:18:06;;;;;;;;;3.50;3.50;;;;;22.65;44.55;101534.59;4914355;29;45559;-88
2022/07/11 05:20:33;;;;;;;;;4.00;4.00;;;;;22.57;44.90;101524.72;4913013;29;45717;-88
2022/07/11 05:23:00;;;;;;;;;4.25;4.00;;;;;22.66;44.27;101530.94;4909703;29;45655;-89
2022/07/11 05:25:26;;;;;;;;;4.00;4.00;;;;;22.54;44.75;101518.88;4904523;29;46929;-89
2022/07/11 05:27:55;;;;;;;;;4.00;4.00;;;;;22.74;44.72;101548.81;4904968;29;45736;-89
2022/07/11 05:30:20;;;;;;;;;3.75;3.00;;;;;22.69;44.44;101541.28;4904208;29;45677;-88
2022/07/11 05:32:45;;;;;;;;;4.50;4.50;;;;;22.64;44.40;101532.06;4904309;29;45584;-91
2022/07/11 05:38:32;;;;;;;;;4.00;3.00;;;;;22.75;45.06;101546.00;4903189;28;46049;-90
2022/07/11 05:40:59;;;;;;;;;4.00;4.00;;;;;22.77;44.81;101554.69;4887504;29;45644;-87
2022/07/11 05:43:25;;;;;;;;;2.00;2.00;;;;;22.74;44.83;101540.81;4903685;29;45869;-91
2022/07/11 05:45:54;;;;;;;;;5.25;5.00;;;;;22.81;44.40;101552.50;4885656;29;47818;-89
2022/07/11 05:48:19;;;;;;;;;4.25;4.25;;;;;22.81;44.95;101550.69;4904430;29;45870;-86
2022/07/11 05:50:44;;;;;;;;;3.00;3.00;;;;;22.77;44.93;101540.50;4884957;29;45706;-84
2022/07/11 05:53:11;;;;;;;;;3.25;3.00;;;;;22.78;45.09;101536.81;4903191;29;45547;-83
2022/07/11 05:55:36;;;;;;;;;3.75;3.75;;;;;22.77;44.42;101540.50;4887422;29;47409;-86
2022/07/11 05:58:02;;;;;;;;;4.75;4.00;;;;;22.80;45.07;101551.66;4903085;29;45574;-85
2022/07/11 06:00:27;;;;;;;;;6.00;6.00;;;;;22.78;44.84;101547.50;4885600;29;45715;-92
2022/07/11 06:02:53;;;;;;;;;4.75;3.75;;;;;22.78;45.08;101545.66;4902990;29;45905;-91
2022/07/11 06:08:40;;;;;;;;;3.25;3.25;;;;;22.86;45.15;101545.66;4901841;29;45900;-84
2022/07/11 06:11:05;;;;;;;;;3.00;3.00;;;;;22.84;44.62;101550.34;4904164;29;45470;-92
2022/07/11 06:13:31;;;;;;;;;4.75;4.00;;;;;22.84;44.71;101550.34;4904950;29;45759;-85
2022/07/11 06:15:57;;;;;;;;;4.25;3.25;;;;;22.87;45.19;101551.84;4904278;29;45723;-87
2022/07/11 06:18:30;;;;;;;;;6.00;3.00;;;;;22.89;45.02;101550.66;4908108;29;46169;-83
2022/07/11 06:24:17;;;;;;;;;3.25;3.00;;;;;22.91;45.22;101555.84;4908581;29;45762;-89
2022/07/11 06:26:44;;;;;;;;;3.00;3.00;;;;;22.95;44.28;101566.03;4905912;29;45664;-88
2022/07/11 06:29:10;;;;;;;;;5.00;5.00;;;;;22.89;44.83;101555.19;4906219;29;45840;-87
2022/07/11 06:31:36;;;;;;;;;3.00;3.00;;;;;23.00;45.03;101555.69;4906535;29;45456;-84
2022/07/11 06:34:02;;;;;;;;;4.00;3.75;;;;;23.00;44.98;101554.84;4892225;29;45741;-90
2022/07/11 06:36:28;;;;;;;;;3.50;3.50;;;;;23.05;44.37;101551.69;4893018;29;45835;-92
2022/07/11 06:38:54;;;;;;;;;2.50;2.25;;;;;23.02;44.87;101548.34;4898775;29;45697;-88
2022/07/11 06:41:21;;;;;;;;;3.75;3.50;;;;;23.11;44.76;101557.19;4916850;29;45484;-94
2022/07/11 06:43:47;;;;;;;;;3.00;3.00;;;;;23.14;44.60;101554.19;4919875;29;45542;-89
2022/07/11 06:46:14;;;;;;;;;3.50;3.50;;;;;23.16;44.93;101552.19;4921715;29;45787;-79
2022/07/11 06:48:40;;;;;;;;;3.00;3.00;;;;;23.10;44.90;101536.84;4914157;29;46294;-87
2022/07/11 06:54:28;;;;;;;;;3.00;3.00;;;;;23.20;44.30;101550.88;4913588;29;45596;-84
2022/07/11 06:56:53;;;;;;;;;3.00;3.00;;;;;23.24;44.55;101543.31;4913200;29;46480;-91
2022/07/11 06:59:20;;;;;;;;;4.00;3.00;;;;;23.26;44.25;101547.53;4913532;29;45454;-91
2022/07/11 07:01:46;;;;;;;;;4.50;3.50;;;;;23.30;44.21;101548.84;4882254;29;45568;-86
2022/07/11 07:04:11;;;;;;;;;3.25;3.00;;;;;23.25;44.21;101539.66;4896911;29;45312;-85
2022/07/11 07:06:37;;;;;;;;;2.00;2.00;;;;;23.35;43.98;101554.53;4909460;29;46503;-89
2022/07/11 07:09:03;;;;;;;;;2.50;2.50;;;;;23.35;44.42;101557.19;4892278;29;45327;-90
2022/07/11 07:11:29;;;;;;;;;3.00;3.00;;;;;23.35;44.08;101551.00;4909335;29;45249;-86
2022/07/11 07:13:54;;;;;;;;;3.25;2.50;;;;;23.32;44.54;101536.13;4907359;29;45695;-85
2022/07/11 07:16:20;;;;;;;;;3.25;3.00;;;;;23.45;44.34;101546.31;4893123;29;45653;-80
2022/07/11 07:18:47;;;;;;;;;2.50;2.50;;;;;23.40;43.72;101540.63;4910938;29;45639;-80
2022/07/11 07:24:38;;;;;;;;;2.00;2.00;;;;;23.45;43.86;101551.66;4905702;29;45715;-81
2022/07/11 07:27:04;;;;;;;;;3.75;3.00;;;;;23.44;44.23;101547.31;4907456;29;45787;-80
2022/07/11 07:29:29;;;;;;;;;2.00;2.00;;;;;23.54;44.35;101569.38;4909683;29;46430;-80
2022/07/11 07:31:55;;;;;;;;;3.00;2.00;;;;;23.52;43.61;101551.84;4891915;29;45571;-88
2022/07/11 07:34:23;;;;;;;;;2.00;2.00;;;;;23.55;44.07;101554.16;4890944;29;45530;-80
2022/07/11 07:40:11;;;;;;;;;2.00;2.00;;;;;23.61;44.03;101548.16;4900101;28;45877;-85
2022/07/11 07:42:36;;;;;;;;;2.00;2.00;;;;;23.63;43.86;101538.13;4901902;29;45575;-81
2022/07/11 07:45:02;;;;;;;;;3.00;3.00;;;;;23.66;43.28;101549.31;4903645;29;45503;-85
2022/07/11 07:47:29;;;;;;;;;2.25;2.25;;;;;23.72;43.47;101563.84;4902061;29;46340;-87
2022/07/11 07:49:55;;;;;;;;;2.00;2.00;;;;;23.76;43.43;101555.28;4899741;29;46476;-82
2022/07/11 07:52:20;;;;;;;;;2.75;2.00;;;;;23.77;43.26;101554.28;4899876;29;45582;-88
2022/07/11 07:54:46;;;;;;;;;3.75;3.00;;;;;23.77;43.21;101553.47;4900433;29;45618;-85
2022/07/11 07:57:12;;;;;;;;;2.00;1.00;;;;;23.79;43.51;101557.66;4898608;29;46520;-83
2022/07/11 07:59:37;;;;;;;;;2.00;2.00;;;;;23.85;43.16;101553.44;4898728;29;45540;-86
2022/07/11 08:02:03;;;;;;;;;3.00;2.00;;;;;23.91;43.39;101568.81;4898486;29;45887;-81
2022/07/11 08:04:29;;;;;;;;;3.50;2.00;;;;;23.92;43.31;101556.25;4881274;29;46003;-79
2022/07/11 08:10:16;;;;;;;;;1.50;1.50;;;;;23.95;42.64;101550.56;4898105;29;45775;-85
2022/07/11 08:12:42;;;;;;;;;2.00;2.00;;;;;23.96;42.98;101549.56;4898753;29;45646;-81
2022/07/11 08:15:07;;;;;;;;;1.50;1.25;;;;;24.03;42.85;101562.06;4898593;29;45474;-84
2022/07/11 08:17:33;;;;;;;;;2.00;2.00;;;;;23.97;42.98;101553.91;4900962;29;45501;-83
2022/07/11 08:19:58;;;;;;;;;2.00;2.00;;;;;24.03;42.88;101551.34;4899703;29;45542;-90
2022/07/11 08:22:25;;;;;;;;;2.25;2.00;;;;;24.08;42.91;101548.16;4882188;29;45611;-89
2022/07/11 08:24:50;;;;;;;;;2.00;2.00;;;;;24.04;42.65;101542.31;4899618;29;45600;-82
2022/07/11 08:27:16;;;;;;;;;3.25;2.50;;;;;24.02;42.80;101530.13;4910868;29;45531;-86
2022/07/11 08:29:41;;;;;;;;;2.00;2.00;;;;;24.10;42.88;101533.59;4912617;29;46366;-87
2022/07/11 08:32:06;;;;;;;;;1.00;1.00;;;;;24.10;42.32;101530.06;4906863;29;45567;-89
2022/07/11 08:34:32;;;;;;;;;2.25;2.25;;;;;24.17;42.56;101526.56;4890372;29;45498;-87
2022/07/11 08:40:20;;;;;;;;;2.00;2.00;;;;;24.28;42.55;101522.66;4898537;29;45853;-82
2022/07/11 08:42:45;;;;;;;;;1.25;1.00;;;;;24.32;42.73;101523.13;4900869;29;45520;-84
2022/07/11 08:45:15;;;;;;;;;2.50;2.00;;;;;24.27;42.74;101507.59;4899458;29;45518;-80
2022/07/11 08:47:42;;;;;;;;;1.00;1.00;;;;;24.32;42.48;101507.06;4899181;29;46843;-85
2022/07/11 08:56:17;;;;;;;;;2.00;2.00;;;;;24.49;42.56;101504.09;4901574;29;45613;-84
2022/07/11 08:58:45;;;;;;;;;3.25;2.50;;;;;24.53;42.74;101510.78;4900811;29;45541;-83
2022/07/11 09:01:12;;;;;;;;;2.00;2.00;;;;;24.59;42.85;101512.75;4900877;29;45784;-83
2022/07/11 09:03:37;;;;;;;;;3.50;2.25;;;;;24.59;42.41;101498.50;4900804;29;45678;-83
2022/07/11 09:06:03;;;;;;;;;3.00;2.50;;;;;24.63;41.91;101503.34;4900836;29;45573;-83
2022/07/11 09:08:29;;;;;;;;;3.00;2.00;;;;;24.70;42.17;101507.97;4900344;29;45681;-83
2022/07/11 09:10:55;;;;;;;;;3.00;3.00;;;;;24.67;42.32;101493.06;4900947;29;46080;-84
2022/07/11 09:13:20;;;;;;;;;3.00;2.00;;;;;24.75;42.38;101498.38;4900812;29;45560;-83
2022/07/11 09:15:49;;;;;;;;;3.00;2.50;;;;;24.82;42.33;101512.75;4901015;29;45710;-84
2022/07/11 09:18:31;;;;;;;;;3.00;3.00;;;;;24.86;42.15;101500.66;4899333;29;47067;-83
2022/07/11 09:26:35;;;;;;;;;3.00;2.50;;;;;24.94;42.21;101502.47;4900679;29;45722;-83
2022/07/11 09:29:12;;;;;;;;;4.00;3.00;;;;;24.98;42.53;101509.97;4900485;29;45656;-83
2022/07/11 09:31:39;;;;;;;;;4.00;3.00;;;;;24.97;42.45;101491.38;4900542;29;45756;-83
2022/07/11 09:34:09;;;;;;;;;3.00;3.00;;;;;25.05;41.97;101497.47;4900617;29;45677;-83
2022/07/11 09:36:40;;;;;;;;;3.75;3.75;;;;;25.07;42.20;101495.47;4901178;29;45563;-82
2022/07/11 09:39:07;;;;;;;;;3.00;2.75;;;;;25.01;42.11;101476.56;4901005;28;46818;-82
2022/07/11 09:41:39;;;;;;;;;4.25;3.00;;;;;25.07;42.38;101486.56;4884358;29;47764;-83
2022/07/11 09:44:28;;;;;;;;;3.00;2.75;;;;;25.14;41.57;101492.06;4884888;29;45604;-86
2022/07/11 09:46:56;;;;;;;;;4.50;3.00;;;;;25.11;41.93;101479.81;4904116;29;45543;-86
2022/07/11 09:49:35;;;;;;;;;3.75;3.25;;;;;25.08;42.00;101473.00;4902834;29;46692;-83
2022/07/11 09:52:16;;;;;;;;;3.75;3.50;;;;;25.24;41.70;101488.09;4902114;29;45918;-81
2022/07/11 09:55:00;;;;;;;;;3.00;3.00;;;;;25.24;41.83;101484.56;4902622;29;45560;-84
2022/07/11 09:57:36;;;;;;;;;4.00;4.00;;;;;25.31;41.89;101494.41;4902556;29;45614;-82
2022/07/11 10:00:05;;;;;;;;;3.00;3.00;;;;;25.33;42.37;101486.16;4900811;29;46509;-83
2022/07/11 10:02:31;;;;;;;;;2.50;2.50;;;;;25.32;41.53;101477.25;4900496;29;46160;-83
2022/07/11 10:04:59;;;;;;;;;3.00;3.00;;;;;25.38;41.76;101481.91;4900677;29;45723;-83
2022/07/11 10:07:24;;;;;;;;;4.00;3.00;;;;;25.41;41.49;101475.34;4900627;29;45739;-85
2022/07/11 10:09:50;;;;;;;;;3.00;3.00;;;;;25.47;41.43;101486.19;4900463;29;45714;-83
2022/07/11 10:12:16;;;;;;;;;4.50;4.00;;;;;25.49;41.44;101486.81;4882859;29;47186;-84
2022/07/11 10:14:43;;;;;;;;;3.00;2.00;;;;;25.53;41.09;101489.13;4900097;29;45509;-81
2022/07/11 10:17:17;;;;;;;;;3.00;3.00;;;;;25.46;41.23;101472.94;4898731;29;46016;-82
2022/07/11 10:19:47;;;;;;;;;3.00;3.00;;;;;25.59;41.52;101488.44;4899698;29;46608;-82
2022/07/11 10:22:43;;;;;;;;;2.00;2.00;;;;;25.64;41.31;101481.47;4899537;29;46084;-81
2022/07/11 10:25:20;;;;;;;;;2.00;2.00;;;;;25.67;41.01;101485.63;4899896;29;45679;-82
2022/07/11 10:28:06;;;;;;;;;3.00;3.00;;;;;25.74;41.03;101487.41;4900115;29;45646;-84
2022/07/11 10:30:50;;;;;;;;;3.00;3.00;;;;;25.76;41.06;101482.66;4899986;29;45556;-82
2022/07/11 10:33:17;;;;;;;;;3.00;3.00;;;;;25.84;41.23;101479.88;4899799;29;46074;-83
2022/07/11 10:35:44;;;;;;;;;3.00;3.00;;;;;25.85;40.95;101481.56;4899601;29;45594;-81
2022/07/11 10:38:10;;;;;;;;;3.00;3.00;;;;;25.88;40.67;101477.66;4899650;29;45674;-83
2022/07/11 10:40:56;;;;;;;;;2.75;2.75;;;;;25.89;40.07;101479.31;4899656;29;45421;-83
2022/07/11 10:43:22;;;;;;;;;2.00;2.00;;;;;25.98;39.86;101488.94;4899656;29;45873;-84
2022/07/11 10:45:58;;;;;;;;;2.75;2.00;;;;;25.98;39.82;101491.63;4899679;29;45581;-83
2022/07/11 10:48:25;;;;;;;;;2.50;2.00;;;;;25.98;39.82;101486.25;4899633;29;45669;-83
2022/07/11 10:51:16;;;;;;;;;2.00;1.50;;;;;26.01;39.71;101485.88;4900450;29;46625;-91
2022/07/11 10:53:48;;;;;;;;;2.00;2.00;;;;;26.03;39.78;101494.56;4898920;29;46139;-85
2022/07/11 10:56:53;;;;;;;;;2.00;2.00;;;;;26.06;39.67;101496.91;4886064;29;45561;-82
2022/07/11 10:59:19;;;;;;;;;2.50;2.00;;;;;26.01;39.53;101487.72;4897826;29;45564;-83
2022/07/11 11:02:07;;;;;;;;;3.00;1.00;;;;;26.09;39.38;101492.97;4898986;29;46550;-79
2022/07/11 11:04:48;;;;;;;;;1.25;1.25;;;;;26.11;39.28;101493.63;4891741;29;48530;-83
2022/07/11 11:10:45;;;;;;;;;2.25;2.00;;;;;26.13;39.18;101489.72;4899129;29;45692;-81
2022/07/11 11:13:10;;;;;;;;;2.00;2.00;;;;;26.13;39.37;101476.28;4899255;29;45839;-83
2022/07/11 11:15:52;;;;;;;;;2.25;2.25;;;;;26.19;39.00;101486.28;4899013;29;46149;-83
2022/07/11 11:18:23;;;;;;;;;2.00;2.00;;;;;26.22;38.97;101474.34;4899347;29;45706;-83
2022/07/11 11:21:18;;;;;;;;;3.00;2.50;;;;;26.23;39.14;101462.59;4899135;29;45487;-84
2022/07/11 11:27:05;;;;;;;;;1.00;1.00;;;;;26.26;38.32;101468.41;4898920;29;45740;-83
2022/07/11 11:29:30;;;;;;;;;2.00;2.00;;;;;26.24;39.01;101472.31;4899478;29;45675;-84
2022/07/11 11:31:59;;;;;;;;;2.00;2.00;;;;;26.28;38.95;101460.19;4899124;29;45723;-82
2022/07/11 11:34:25;;;;;;;;;2.00;2.00;;;;;26.33;39.86;101456.91;4897067;29;47069;-82
2022/07/11 11:36:56;;;;;;;;;2.00;2.00;;;;;26.42;38.84;101463.81;4898626;29;45798;-82
2022/07/11 11:39:26;;;;;;;;;2.50;2.50;;;;;26.44;39.03;101454.56;4898662;29;45804;-83
2022/07/11 11:41:51;;;;;;;;;2.00;2.00;;;;;26.45;39.02;101448.13;4899001;29;45508;-82
2022/07/11 11:44:16;;;;;;;;;2.00;2.00;;;;;26.57;38.86;101451.13;4898824;29;46653;-85
2022/07/11 11:46:42;;;;;;;;;2.50;2.00;;;;;26.58;39.34;101440.19;4899090;29;45705;-83
2022/07/11 11:49:07;;;;;;;;;2.00;2.00;;;;;26.69;38.78;101457.66;4898744;29;45580;-82
2022/07/11 11:51:33;;;;;;;;;2.50;2.00;;;;;26.67;38.47;101447.09;4898700;29;45784;-81
2022/07/11 11:57:22;;;;;;;;;2.00;2.00;;;;;26.80;38.12;101446.38;4898558;29;45981;-82
2022/07/11 11:59:50;;;;;;;;;2.00;2.00;;;;;26.78;37.90;101444.91;4899445;29;45684;-83
2022/07/11 12:02:24;;;;;;;;;2.00;2.00;;;;;26.83;37.49;101427.16;4898641;29;45751;-82
2022/07/11 12:04:49;;;;;;;;;2.00;2.00;;;;;26.85;38.38;101424.28;4898737;29;46428;-83
2022/07/11 12:07:22;;;;;;;;;2.00;2.00;;;;;26.89;38.01;101428.25;4898258;29;45654;-82
2022/07/11 12:09:52;;;;;;;;;3.00;2.50;;;;;26.93;38.36;101419.63;4898529;29;45801;-83
2022/07/11 12:15:06;;;;;;;;;2.50;2.00;;;;;27.09;37.38;101440.84;4897905;29;45475;-84
2022/07/11 12:17:32;;;;;;;;;3.00;2.00;;;;;27.09;37.43;101432.78;4896898;29;47522;-81
2022/07/11 12:19:58;;;;;;;;;2.00;2.00;;;;;27.10;37.41;101434.41;4898086;29;45706;-84
2022/07/11 12:22:27;;;;;;;;;3.00;2.00;;;;;27.16;37.89;101427.41;4898206;29;45718;-84
2022/07/11 12:24:55;;;;;;;;;2.00;2.00;;;;;27.16;37.45;101413.97;4898210;29;46940;-84
2022/07/11 12:27:24;;;;;;;;;3.00;2.00;;;;;27.25;37.01;101428.13;4897766;29;46315;-84
2022/07/11 12:29:51;;;;;;;;;2.25;1.75;;;;;27.25;36.71;101426.25;4880811;29;45644;-81
2022/07/11 12:32:18;;;;;;;;;1.50;1.50;;;;;27.31;37.41;101419.25;4898408;29;45625;-82
2022/07/11 12:34:45;;;;;;;;;3.00;2.00;;;;;27.27;36.94;101418.78;4898212;29;45944;-83
2022/07/11 12:37:19;;;;;;;;;1.75;1.50;;;;;27.38;37.38;101426.31;4898022;29;45735;-84
2022/07/11 12:39:53;;;;;;;;;2.50;2.00;;;;;27.40;37.01;101418.88;4897908;29;45662;-84
2022/07/11 12:42:28;;;;;;;;;2.75;1.75;;;;;27.45;36.67;101419.13;4898217;29;45595;-85
2022/07/11 12:44:58;;;;;;;;;1.00;1.00;;;;;27.44;36.75;101409.38;4880631;29;48729;-84
2022/07/11 12:47:26;;;;;;;;;1.25;1.00;;;;;27.47;37.07;101402.75;4897898;29;45915;-84
2022/07/11 12:49:51;;;;;;;;;2.00;2.00;;;;;27.58;36.80;101409.47;4898123;29;45742;-81
2022/07/11 12:52:19;;;;;;;;;1.00;1.00;;;;;27.55;35.90;101402.63;4897881;29;45721;-81
2022/07/11 12:54:45;;;;;;;;;1.00;1.00;;;;;27.63;36.07;101412.41;4899299;29;45591;-85
2022/07/11 12:57:17;;;;;;;;;2.25;2.00;;;;;27.61;35.92;101396.44;4900310;29;45474;-83
2022/07/11 12:59:42;;;;;;;;;2.00;2.00;;;;;27.60;35.94;101408.22;4896112;29;45629;-81